RELEVES METEO NEUVILLE
Donnes mto: Actuelle dimanche, 23/02/2020 15:05
Date Horaire Temp. E. Hum. E. P.atmo. Pluie Vent Direction Direction P. de rose Temp au vent Rafales
23/02/2020 15:05 12,1 C 96 % 1017,3 hPa 0,2 mm 5,2 km/h (1 Bft) O 272 11,5 C 12,1 C 16,1 km/h (3 Bft)
23/02/2020 15:00 12,1 C 96 % 1017,1 hPa 0,0 mm 6,9 km/h (2 Bft) S 178 11,5 C 11,8 C 24,1 km/h (4 Bft)
23/02/2020 14:55 12,1 C 96 % 1017,1 hPa 0,0 mm 5,0 km/h (1 Bft) O 267 11,5 C 12,1 C 16,1 km/h (3 Bft)
23/02/2020 14:50 12,1 C 96 % 1017,0 hPa 0,0 mm 5,0 km/h (1 Bft) O-SO 239 11,5 C 12,1 C 12,9 km/h (3 Bft)
23/02/2020 14:45 12,1 C 96 % 1017,0 hPa 0,0 mm 4,8 km/h (1 Bft) SO 236 11,5 C 12,1 C 16,1 km/h (3 Bft)
23/02/2020 14:40 12,1 C 96 % 1016,8 hPa 0,0 mm 6,2 km/h (2 Bft) S-SO 199 11,5 C 12,1 C 25,7 km/h (4 Bft)
23/02/2020 14:35 12,1 C 96 % 1016,7 hPa 0,0 mm 5,7 km/h (1 Bft) SE 135 11,5 C 12,1 C 16,1 km/h (3 Bft)
23/02/2020 14:30 12,1 C 96 % 1016,8 hPa 0,2 mm 6,1 km/h (2 Bft) O-SO 243 11,5 C 12,1 C 20,9 km/h (4 Bft)
23/02/2020 14:25 12,1 C 96 % 1016,6 hPa 0,0 mm 4,8 km/h (1 Bft) SO 220 11,5 C 12,1 C 16,1 km/h (3 Bft)
23/02/2020 14:20 12,1 C 96 % 1016,7 hPa 0,0 mm 7,2 km/h (2 Bft) S 181 11,5 C 11,6 C 20,9 km/h (4 Bft)
23/02/2020 14:15 12,1 C 96 % 1016,9 hPa 0,0 mm 6,2 km/h (2 Bft) S-SE 155 11,5 C 12,1 C 17,7 km/h (3 Bft)
23/02/2020 14:10 12,1 C 96 % 1017,0 hPa 0,0 mm 4,7 km/h (1 Bft) E 96 11,5 C 12,1 C 16,1 km/h (3 Bft)
23/02/2020 14:05 12,1 C 96 % 1016,8 hPa 0,0 mm 5,4 km/h (1 Bft) S-SO 198 11,5 C 12,1 C 22,5 km/h (4 Bft)
23/02/2020 14:00 12,2 C 96 % 1017,0 hPa 0,2 mm 7,2 km/h (2 Bft) SE 133 11,6 C 11,7 C 20,9 km/h (4 Bft)
23/02/2020 13:55 12,2 C 96 % 1016,9 hPa 0,0 mm 8,0 km/h (2 Bft) O-SO 240 11,6 C 11,2 C 24,1 km/h (4 Bft)
23/02/2020 13:50 12,2 C 96 % 1016,6 hPa 0,0 mm 6,7 km/h (2 Bft) N-NO 340 11,6 C 12,0 C 19,3 km/h (3 Bft)
23/02/2020 13:45 12,3 C 96 % 1016,5 hPa 0,0 mm 7,0 km/h (2 Bft) O 259 11,7 C 11,9 C 20,9 km/h (4 Bft)
23/02/2020 13:40 12,3 C 96 % 1016,8 hPa 0,0 mm 6,2 km/h (2 Bft) S 184 11,7 C 12,3 C 19,3 km/h (3 Bft)
23/02/2020 13:35 12,3 C 96 % 1016,9 hPa 0,0 mm 5,8 km/h (2 Bft) SO 217 11,7 C 12,3 C 22,5 km/h (4 Bft)
23/02/2020 13:30 12,3 C 95 % 1016,9 hPa 0,0 mm 8,4 km/h (2 Bft) O-SO 245 11,5 C 11,0 C 22,5 km/h (4 Bft)
23/02/2020 13:25 12,2 C 95 % 1016,6 hPa 0,2 mm 7,3 km/h (2 Bft) SO 236 11,4 C 11,6 C 25,7 km/h (4 Bft)
_ Min-Heure 04:25 00:00 09:05 - 02:10 - - 01:15 06:30 02:10
Minimum _ 9,9 C 88 % 1016,4 hPa - 0,2 km/h (0 Bft) - - 8,2 C 7,0 C 3,2 km/h (1 Bft)
_ Max-Heure 13:25 13:35 00:00 10:40 06:30 - - 13:35 13:35 06:30
Maximum _ 12,3 C 96 % 1024,7 hPa 0,2 mm 11,0 km/h
SO (2 Bft)
- - 11,7 C 12,3 C 35,4 km/h
S-SE (5 Bft)
Moyenne _ 10,8 C 93 % 1019,2 hPa #1,4 mm 5,4 km/h (1 Bft) S-SO - 9,7 C 10,5 C 19,1 km/h (3 Bft)
NEUVILLE ST REMY